Hauptseite
METAR-TAF:

METAR-TAF

Flughäfen :

Flughafen Leipzig/Halle

Leipzig, Deutschland

Breite: 51-25N, Länge: 012-14E, Höhe: 144 m

Beobachtung

Neuester Wetterbericht von vor 13 Minuten, um 15:50 UTC
Wind 2 kt aus unterschiedlichen Richtungen
Temperatur 8°C
Luftfeuchtigkeit 49%
Luftdruck 1021 hPa
Sichtweite 10 km oder mehr
keine Wolken unter 1500 m und keine Kumulonimbus oder Gewitterwolken

METAR: EDDP 281550Z AUTO VRB02KT CAVOK 08/M02 Q1021 NOSIG

Zeit: 17:03 (16:03 UTC)

Prognose

Neuester Wetterbericht von vor 5 Stunden und 3 Minuten, um 11:00 UTC
Gültige Prognose vom 28 um 12 UTC bis 29 um 12 UTC
Wind 5 kt aus West
Sichtweite 10 km oder mehr
Leicht bewölkt in der Höhe von 2000 ft
Übergehend zu
vom 28 um 16 UTC bis 28 um 19 UTC
Wind 5 kt aus Süd/Südost

TAF: EDDP 281100Z 2812/2912 27005KT 9999 FEW020 BECMG 2816/2819 16005KT

Wetterbeobachtungen und Prognosen von mehr als 4000 Flughäfen (METAR und TAF Bericht).

Die verfügbaren Stationen werden durch gelbe und rote Markierungen auf der Karte dargestellt.

Führen Sie die Maus auf sie, um den Namen der Station zu sehen.

Darauf klicken, um die Beobachtung von Wetterbeobachtungen und Prognosen zu sehen.

Um die Karte zu ändern : klicken Sie auf den grünen Tasten mit einem schwarzen Kreuz Zum Vergrößern, auf den grünen Button mit einem Gedankenstrich zu verkleinern, oder auf die grünen Pfeile für benachbarte Karten.


METAR-TAF: